Mineral Point, Missouri
Current Conditions -  °F | °C
As of 4:55 PM on Saturday 25 Oct 2014 (Local Time) from KFAM Reporting Station
Clear Clear  
Wind Chill: 79°   Ceiling: Unl
Heat Index: 80°   Visibility: 10mi
Dew Point: 57°   Wind: 0mph
Humidity: 47%   Direction: NA
Pressure: 30.04"   Gusts: NA
Location:  37.94°N, 90.72°W
Report Text: KFAM 252155Z AUTO 00000KT 10SM CLR 26/14 A3004 RMK AO1
Loading
Personal Weather Stations






























Interactive Weather Map New forecast layout! Learn more

10-Day Weather Forecast

Advertisements
Track Severe Weather on mobile